sensor_id;sensor_type;location;lat;lon;timestamp;temperature;humidity
14473;DHT22;7322;50.872;4.386;2023-07-28T00:01:42;23.60;99.90
14473;DHT22;7322;50.872;4.386;2023-07-28T00:04:09;23.50;99.90
14473;DHT22;7322;50.872;4.386;2023-07-28T00:06:36;23.60;99.90
14473;DHT22;7322;50.872;4.386;2023-07-28T00:09:03;23.50;99.90
14473;DHT22;7322;50.872;4.386;2023-07-28T00:11:31;23.60;99.90
14473;DHT22;7322;50.872;4.386;2023-07-28T00:13:58;23.60;99.90
14473;DHT22;7322;50.872;4.386;2023-07-28T00:16:27;23.60;99.90
14473;DHT22;7322;50.872;4.386;2023-07-28T00:18:55;23.50;99.90
14473;DHT22;7322;50.872;4.386;2023-07-28T00:21:34;23.60;99.90
14473;DHT22;7322;50.872;4.386;2023-07-28T00:24:02;23.60;99.90
14473;DHT22;7322;50.872;4.386;2023-07-28T00:26:37;23.50;99.90
14473;DHT22;7322;50.872;4.386;2023-07-28T00:29:06;23.50;99.90
14473;DHT22;7322;50.872;4.386;2023-07-28T00:31:36;23.50;99.90
14473;DHT22;7322;50.872;4.386;2023-07-28T00:34:04;23.50;99.90
14473;DHT22;7322;50.872;4.386;2023-07-28T00:36:31;23.50;99.90
14473;DHT22;7322;50.872;4.386;2023-07-28T00:38:58;23.50;99.90
14473;DHT22;7322;50.872;4.386;2023-07-28T00:41:25;23.50;99.90
14473;DHT22;7322;50.872;4.386;2023-07-28T00:43:52;23.50;99.90
14473;DHT22;7322;50.872;4.386;2023-07-28T00:46:20;23.50;99.90
14473;DHT22;7322;50.872;4.386;2023-07-28T00:52:19;23.50;99.90
14473;DHT22;7322;50.872;4.386;2023-07-28T00:54:50;23.50;99.90
14473;DHT22;7322;50.872;4.386;2023-07-28T00:57:23;23.30;99.90
14473;DHT22;7322;50.872;4.386;2023-07-28T01:00:12;23.30;99.90
14473;DHT22;7322;50.872;4.386;2023-07-28T01:02:45;23.40;99.90
14473;DHT22;7322;50.872;4.386;2023-07-28T01:05:17;23.30;99.90
14473;DHT22;7322;50.872;4.386;2023-07-28T01:07:53;23.30;99.90
14473;DHT22;7322;50.872;4.386;2023-07-28T01:10:30;23.30;99.90
14473;DHT22;7322;50.872;4.386;2023-07-28T01:12:57;23.30;99.90
14473;DHT22;7322;50.872;4.386;2023-07-28T01:15:24;23.30;99.90
14473;DHT22;7322;50.872;4.386;2023-07-28T01:17:52;23.30;99.90
14473;DHT22;7322;50.872;4.386;2023-07-28T01:20:19;23.30;99.90
14473;DHT22;7322;50.872;4.386;2023-07-28T01:23:07;23.30;99.90
14473;DHT22;7322;50.872;4.386;2023-07-28T01:25:43;23.20;99.90
14473;DHT22;7322;50.872;4.386;2023-07-28T01:28:15;23.30;99.90
14473;DHT22;7322;50.872;4.386;2023-07-28T01:30:43;23.20;99.90
14473;DHT22;7322;50.872;4.386;2023-07-28T01:33:11;23.30;99.90
14473;DHT22;7322;50.872;4.386;2023-07-28T01:35:40;23.30;99.90
14473;DHT22;7322;50.872;4.386;2023-07-28T01:38:07;23.20;99.90
14473;DHT22;7322;50.872;4.386;2023-07-28T01:40:34;23.30;99.90
14473;DHT22;7322;50.872;4.386;2023-07-28T01:43:02;23.20;99.90
14473;DHT22;7322;50.872;4.386;2023-07-28T01:45:30;23.30;99.90
14473;DHT22;7322;50.872;4.386;2023-07-28T01:47:57;23.30;99.90
14473;DHT22;7322;50.872;4.386;2023-07-28T01:50:24;23.30;99.90
14473;DHT22;7322;50.872;4.386;2023-07-28T01:52:51;23.20;99.90
14473;DHT22;7322;50.872;4.386;2023-07-28T01:55:18;23.20;99.90
14473;DHT22;7322;50.872;4.386;2023-07-28T01:57:54;23.20;99.90
14473;DHT22;7322;50.872;4.386;2023-07-28T02:00:21;23.20;99.90
14473;DHT22;7322;50.872;4.386;2023-07-28T02:02:50;23.20;99.90
14473;DHT22;7322;50.872;4.386;2023-07-28T02:05:18;23.20;99.90
14473;DHT22;7322;50.872;4.386;2023-07-28T02:07:45;23.10;99.90
14473;DHT22;7322;50.872;4.386;2023-07-28T02:10:12;23.20;99.90
14473;DHT22;7322;50.872;4.386;2023-07-28T02:12:40;23.20;99.90
14473;DHT22;7322;50.872;4.386;2023-07-28T02:15:08;23.20;99.90
14473;DHT22;7322;50.872;4.386;2023-07-28T02:17:35;23.20;99.90
14473;DHT22;7322;50.872;4.386;2023-07-28T02:20:04;23.30;99.90
14473;DHT22;7322;50.872;4.386;2023-07-28T02:22:32;23.30;99.90
14473;DHT22;7322;50.872;4.386;2023-07-28T02:24:59;23.20;99.90
14473;DHT22;7322;50.872;4.386;2023-07-28T02:27:27;23.20;99.90
14473;DHT22;7322;50.872;4.386;2023-07-28T02:29:55;23.20;99.90
14473;DHT22;7322;50.872;4.386;2023-07-28T02:32:22;23.20;99.90
14473;DHT22;7322;50.872;4.386;2023-07-28T02:34:49;23.20;99.90
14473;DHT22;7322;50.872;4.386;2023-07-28T02:37:18;23.30;99.90
14473;DHT22;7322;50.872;4.386;2023-07-28T02:39:45;23.30;99.90
14473;DHT22;7322;50.872;4.386;2023-07-28T02:42:12;23.30;99.90
14473;DHT22;7322;50.872;4.386;2023-07-28T02:44:39;23.30;99.90
14473;DHT22;7322;50.872;4.386;2023-07-28T02:47:07;23.30;99.90
14473;DHT22;7322;50.872;4.386;2023-07-28T02:49:34;23.30;99.90
14473;DHT22;7322;50.872;4.386;2023-07-28T02:52:01;23.30;99.90
14473;DHT22;7322;50.872;4.386;2023-07-28T02:54:30;23.30;99.90
14473;DHT22;7322;50.872;4.386;2023-07-28T02:56:57;23.30;99.90
14473;DHT22;7322;50.872;4.386;2023-07-28T02:59:26;23.30;99.90
14473;DHT22;7322;50.872;4.386;2023-07-28T03:01:53;23.20;99.90
14473;DHT22;7322;50.872;4.386;2023-07-28T03:04:22;23.20;99.90
14473;DHT22;7322;50.872;4.386;2023-07-28T03:06:49;23.20;99.90
14473;DHT22;7322;50.872;4.386;2023-07-28T03:09:16;23.30;99.90
14473;DHT22;7322;50.872;4.386;2023-07-28T03:11:44;23.30;99.90
14473;DHT22;7322;50.872;4.386;2023-07-28T03:14:11;23.40;99.90
14473;DHT22;7322;50.872;4.386;2023-07-28T03:16:40;23.40;99.90
14473;DHT22;7322;50.872;4.386;2023-07-28T03:19:07;23.30;99.90
14473;DHT22;7322;50.872;4.386;2023-07-28T03:21:34;23.30;99.90
14473;DHT22;7322;50.872;4.386;2023-07-28T03:24:01;23.30;99.90
14473;DHT22;7322;50.872;4.386;2023-07-28T03:26:28;23.30;99.90
14473;DHT22;7322;50.872;4.386;2023-07-28T03:28:56;23.30;99.90
14473;DHT22;7322;50.872;4.386;2023-07-28T03:31:23;23.30;99.90
14473;DHT22;7322;50.872;4.386;2023-07-28T03:33:50;23.20;99.90
14473;DHT22;7322;50.872;4.386;2023-07-28T03:36:17;23.20;99.90
14473;DHT22;7322;50.872;4.386;2023-07-28T03:38:45;23.30;99.90
14473;DHT22;7322;50.872;4.386;2023-07-28T03:41:12;23.20;99.90
14473;DHT22;7322;50.872;4.386;2023-07-28T03:43:40;23.30;99.90
14473;DHT22;7322;50.872;4.386;2023-07-28T03:46:09;23.20;99.90
14473;DHT22;7322;50.872;4.386;2023-07-28T03:48:36;23.10;99.90
14473;DHT22;7322;50.872;4.386;2023-07-28T03:51:03;23.20;99.90
14473;DHT22;7322;50.872;4.386;2023-07-28T03:53:30;23.20;99.90
14473;DHT22;7322;50.872;4.386;2023-07-28T03:56:00;23.20;99.90
14473;DHT22;7322;50.872;4.386;2023-07-28T03:58:27;23.20;99.90
14473;DHT22;7322;50.872;4.386;2023-07-28T04:00:55;23.20;99.90
14473;DHT22;7322;50.872;4.386;2023-07-28T04:03:23;23.30;99.90
14473;DHT22;7322;50.872;4.386;2023-07-28T04:05:50;23.30;99.90
14473;DHT22;7322;50.872;4.386;2023-07-28T04:08:17;23.30;99.90
14473;DHT22;7322;50.872;4.386;2023-07-28T04:10:44;23.30;99.90
14473;DHT22;7322;50.872;4.386;2023-07-28T04:13:12;23.20;99.90
14473;DHT22;7322;50.872;4.386;2023-07-28T04:15:39;23.30;99.90
14473;DHT22;7322;50.872;4.386;2023-07-28T04:18:06;23.30;99.90
14473;DHT22;7322;50.872;4.386;2023-07-28T04:20:35;23.30;99.90
14473;DHT22;7322;50.872;4.386;2023-07-28T04:23:02;23.30;99.90
14473;DHT22;7322;50.872;4.386;2023-07-28T04:25:29;23.20;99.90
14473;DHT22;7322;50.872;4.386;2023-07-28T04:27:56;23.20;99.90
14473;DHT22;7322;50.872;4.386;2023-07-28T04:30:23;23.20;99.90
14473;DHT22;7322;50.872;4.386;2023-07-28T04:32:50;23.20;99.90
14473;DHT22;7322;50.872;4.386;2023-07-28T04:35:17;23.30;99.90
14473;DHT22;7322;50.872;4.386;2023-07-28T04:37:45;23.30;99.90
14473;DHT22;7322;50.872;4.386;2023-07-28T04:40:12;23.40;99.90
14473;DHT22;7322;50.872;4.386;2023-07-28T04:42:39;23.30;99.90
14473;DHT22;7322;50.872;4.386;2023-07-28T04:45:07;23.40;99.90
14473;DHT22;7322;50.872;4.386;2023-07-28T04:47:37;23.40;99.90
14473;DHT22;7322;50.872;4.386;2023-07-28T04:50:04;23.40;99.90
14473;DHT22;7322;50.872;4.386;2023-07-28T04:52:31;23.40;99.90
14473;DHT22;7322;50.872;4.386;2023-07-28T04:55:00;23.40;99.90
14473;DHT22;7322;50.872;4.386;2023-07-28T04:57:27;23.30;99.90
14473;DHT22;7322;50.872;4.386;2023-07-28T04:59:54;23.30;99.90
14473;DHT22;7322;50.872;4.386;2023-07-28T05:02:21;23.30;99.90
14473;DHT22;7322;50.872;4.386;2023-07-28T05:04:48;23.30;99.90
14473;DHT22;7322;50.872;4.386;2023-07-28T05:07:15;23.20;99.90
14473;DHT22;7322;50.872;4.386;2023-07-28T05:09:42;23.30;99.90
14473;DHT22;7322;50.872;4.386;2023-07-28T05:12:12;23.30;99.90
14473;DHT22;7322;50.872;4.386;2023-07-28T05:14:39;23.30;99.90
14473;DHT22;7322;50.872;4.386;2023-07-28T05:17:06;23.30;99.90
14473;DHT22;7322;50.872;4.386;2023-07-28T05:19:35;23.40;99.90
14473;DHT22;7322;50.872;4.386;2023-07-28T05:22:08;23.50;99.90
14473;DHT22;7322;50.872;4.386;2023-07-28T05:24:44;23.50;99.90
14473;DHT22;7322;50.872;4.386;2023-07-28T05:27:13;23.50;99.90
14473;DHT22;7322;50.872;4.386;2023-07-28T05:29:52;23.50;99.90
14473;DHT22;7322;50.872;4.386;2023-07-28T05:32:20;23.50;99.90
14473;DHT22;7322;50.872;4.386;2023-07-28T05:35:00;23.40;99.90
14473;DHT22;7322;50.872;4.386;2023-07-28T05:37:29;23.50;99.90
14473;DHT22;7322;50.872;4.386;2023-07-28T05:40:07;23.40;99.90
14473;DHT22;7322;50.872;4.386;2023-07-28T05:42:36;23.50;99.90
14473;DHT22;7322;50.872;4.386;2023-07-28T05:45:03;23.30;99.90
14473;DHT22;7322;50.872;4.386;2023-07-28T05:47:53;23.40;99.90
14473;DHT22;7322;50.872;4.386;2023-07-28T05:50:27;23.50;99.90
14473;DHT22;7322;50.872;4.386;2023-07-28T05:52:59;23.50;99.90
14473;DHT22;7322;50.872;4.386;2023-07-28T05:55:26;23.50;99.90
14473;DHT22;7322;50.872;4.386;2023-07-28T05:57:55;23.50;99.90
14473;DHT22;7322;50.872;4.386;2023-07-28T06:00:22;23.50;99.90
14473;DHT22;7322;50.872;4.386;2023-07-28T06:02:49;23.50;99.90
14473;DHT22;7322;50.872;4.386;2023-07-28T06:05:16;23.50;99.90
14473;DHT22;7322;50.872;4.386;2023-07-28T06:07:45;23.50;99.90
14473;DHT22;7322;50.872;4.386;2023-07-28T06:10:13;23.40;99.90
14473;DHT22;7322;50.872;4.386;2023-07-28T06:12:40;23.40;99.90
14473;DHT22;7322;50.872;4.386;2023-07-28T06:15:13;23.40;99.90
14473;DHT22;7322;50.872;4.386;2023-07-28T06:17:41;23.40;99.90
14473;DHT22;7322;50.872;4.386;2023-07-28T06:20:09;23.50;99.90
14473;DHT22;7322;50.872;4.386;2023-07-28T06:22:36;23.60;99.90
14473;DHT22;7322;50.872;4.386;2023-07-28T06:25:04;23.60;99.90
14473;DHT22;7322;50.872;4.386;2023-07-28T06:27:31;23.60;99.90
14473;DHT22;7322;50.872;4.386;2023-07-28T06:30:11;23.50;99.90
14473;DHT22;7322;50.872;4.386;2023-07-28T06:35:32;23.50;99.90
14473;DHT22;7322;50.872;4.386;2023-07-28T06:37:59;23.60;99.90
14473;DHT22;7322;50.872;4.386;2023-07-28T06:40:26;23.70;99.90
14473;DHT22;7322;50.872;4.386;2023-07-28T06:42:53;23.70;99.90
14473;DHT22;7322;50.872;4.386;2023-07-28T06:45:22;23.80;99.90
14473;DHT22;7322;50.872;4.386;2023-07-28T06:47:49;23.80;99.90
14473;DHT22;7322;50.872;4.386;2023-07-28T06:50:17;23.90;99.90
14473;DHT22;7322;50.872;4.386;2023-07-28T06:52:44;23.90;99.90
14473;DHT22;7322;50.872;4.386;2023-07-28T06:55:11;23.90;99.90
14473;DHT22;7322;50.872;4.386;2023-07-28T06:57:38;23.90;99.90
14473;DHT22;7322;50.872;4.386;2023-07-28T07:00:07;24.00;99.90
14473;DHT22;7322;50.872;4.386;2023-07-28T07:02:36;24.10;99.90
14473;DHT22;7322;50.872;4.386;2023-07-28T07:05:04;24.20;99.90
14473;DHT22;7322;50.872;4.386;2023-07-28T07:07:32;24.20;99.90
14473;DHT22;7322;50.872;4.386;2023-07-28T07:09:59;24.30;99.90
14473;DHT22;7322;50.872;4.386;2023-07-28T07:12:26;24.40;99.90
14473;DHT22;7322;50.872;4.386;2023-07-28T07:14:53;24.40;99.90
14473;DHT22;7322;50.872;4.386;2023-07-28T07:17:21;24.40;99.90
14473;DHT22;7322;50.872;4.386;2023-07-28T07:19:49;24.40;99.90
14473;DHT22;7322;50.872;4.386;2023-07-28T07:22:16;24.40;99.90
14473;DHT22;7322;50.872;4.386;2023-07-28T07:24:44;24.40;99.90
14473;DHT22;7322;50.872;4.386;2023-07-28T07:27:11;24.40;99.90
14473;DHT22;7322;50.872;4.386;2023-07-28T07:29:38;24.40;99.90
14473;DHT22;7322;50.872;4.386;2023-07-28T07:32:07;24.40;99.90
14473;DHT22;7322;50.872;4.386;2023-07-28T07:34:35;24.40;99.90
14473;DHT22;7322;50.872;4.386;2023-07-28T07:37:05;24.50;99.90
14473;DHT22;7322;50.872;4.386;2023-07-28T07:39:33;24.50;99.90
14473;DHT22;7322;50.872;4.386;2023-07-28T07:42:01;24.50;99.90
14473;DHT22;7322;50.872;4.386;2023-07-28T07:44:29;24.60;99.90
14473;DHT22;7322;50.872;4.386;2023-07-28T07:46:58;24.60;99.90
14473;DHT22;7322;50.872;4.386;2023-07-28T07:49:26;24.70;99.90
14473;DHT22;7322;50.872;4.386;2023-07-28T07:51:53;24.70;99.90
14473;DHT22;7322;50.872;4.386;2023-07-28T07:54:22;24.70;99.90
14473;DHT22;7322;50.872;4.386;2023-07-28T07:56:49;24.80;99.90
14473;DHT22;7322;50.872;4.386;2023-07-28T07:59:16;24.80;99.90
14473;DHT22;7322;50.872;4.386;2023-07-28T08:01:43;24.90;99.90
14473;DHT22;7322;50.872;4.386;2023-07-28T08:04:10;24.80;99.90
14473;DHT22;7322;50.872;4.386;2023-07-28T08:06:37;24.90;99.90
14473;DHT22;7322;50.872;4.386;2023-07-28T08:09:05;24.90;99.90
14473;DHT22;7322;50.872;4.386;2023-07-28T08:11:34;24.90;99.90
14473;DHT22;7322;50.872;4.386;2023-07-28T08:14:01;24.90;99.90
14473;DHT22;7322;50.872;4.386;2023-07-28T08:16:28;25.00;99.90
14473;DHT22;7322;50.872;4.386;2023-07-28T08:18:55;24.90;99.90
14473;DHT22;7322;50.872;4.386;2023-07-28T08:21:22;24.90;99.90
14473;DHT22;7322;50.872;4.386;2023-07-28T08:23:49;24.90;99.90
14473;DHT22;7322;50.872;4.386;2023-07-28T08:26:17;24.90;99.90
14473;DHT22;7322;50.872;4.386;2023-07-28T08:28:45;25.00;99.90
14473;DHT22;7322;50.872;4.386;2023-07-28T08:31:12;25.10;99.90
14473;DHT22;7322;50.872;4.386;2023-07-28T08:33:39;25.10;99.90
14473;DHT22;7322;50.872;4.386;2023-07-28T08:36:06;25.10;99.90
14473;DHT22;7322;50.872;4.386;2023-07-28T08:38:33;25.10;99.90
14473;DHT22;7322;50.872;4.386;2023-07-28T08:41:00;25.20;99.90
14473;DHT22;7322;50.872;4.386;2023-07-28T08:43:28;25.20;99.90
14473;DHT22;7322;50.872;4.386;2023-07-28T08:45:57;25.20;99.90
14473;DHT22;7322;50.872;4.386;2023-07-28T08:48:24;25.20;99.90
14473;DHT22;7322;50.872;4.386;2023-07-28T08:50:52;25.30;99.90
14473;DHT22;7322;50.872;4.386;2023-07-28T08:53:19;25.30;99.90
14473;DHT22;7322;50.872;4.386;2023-07-28T08:55:47;25.30;99.90
14473;DHT22;7322;50.872;4.386;2023-07-28T08:58:15;25.30;99.90
14473;DHT22;7322;50.872;4.386;2023-07-28T09:00:42;25.30;99.90
14473;DHT22;7322;50.872;4.386;2023-07-28T09:03:11;25.30;99.90
14473;DHT22;7322;50.872;4.386;2023-07-28T09:05:38;25.30;99.90
14473;DHT22;7322;50.872;4.386;2023-07-28T09:08:08;25.30;99.90
14473;DHT22;7322;50.872;4.386;2023-07-28T09:10:43;25.30;99.90
14473;DHT22;7322;50.872;4.386;2023-07-28T09:13:10;25.20;99.90
14473;DHT22;7322;50.872;4.386;2023-07-28T09:15:39;25.20;99.90
14473;DHT22;7322;50.872;4.386;2023-07-28T09:18:08;25.20;99.90
14473;DHT22;7322;50.872;4.386;2023-07-28T09:20:38;25.30;99.90
14473;DHT22;7322;50.872;4.386;2023-07-28T09:23:07;25.30;99.90
14473;DHT22;7322;50.872;4.386;2023-07-28T09:25:35;25.20;99.90
14473;DHT22;7322;50.872;4.386;2023-07-28T09:28:03;25.20;99.90
14473;DHT22;7322;50.872;4.386;2023-07-28T09:30:44;25.20;99.90
14473;DHT22;7322;50.872;4.386;2023-07-28T09:33:12;25.20;99.90
14473;DHT22;7322;50.872;4.386;2023-07-28T09:35:49;25.20;99.90
14473;DHT22;7322;50.872;4.386;2023-07-28T09:38:16;25.20;99.90
14473;DHT22;7322;50.872;4.386;2023-07-28T09:40:46;25.20;99.90
14473;DHT22;7322;50.872;4.386;2023-07-28T09:43:14;25.20;99.90
14473;DHT22;7322;50.872;4.386;2023-07-28T09:45:43;25.30;99.90
14473;DHT22;7322;50.872;4.386;2023-07-28T09:48:10;25.30;99.90
14473;DHT22;7322;50.872;4.386;2023-07-28T09:50:40;25.30;99.90
14473;DHT22;7322;50.872;4.386;2023-07-28T09:53:10;25.30;99.90
14473;DHT22;7322;50.872;4.386;2023-07-28T09:55:39;25.40;99.90
14473;DHT22;7322;50.872;4.386;2023-07-28T09:58:10;25.40;99.90
14473;DHT22;7322;50.872;4.386;2023-07-28T10:01:02;25.40;99.90
14473;DHT22;7322;50.872;4.386;2023-07-28T10:03:32;25.50;99.90
14473;DHT22;7322;50.872;4.386;2023-07-28T10:06:06;25.40;99.90
14473;DHT22;7322;50.872;4.386;2023-07-28T10:08:35;25.50;99.90
14473;DHT22;7322;50.872;4.386;2023-07-28T10:11:03;25.50;99.90
14473;DHT22;7322;50.872;4.386;2023-07-28T10:13:39;25.50;99.90
14473;DHT22;7322;50.872;4.386;2023-07-28T10:16:07;25.60;99.90
14473;DHT22;7322;50.872;4.386;2023-07-28T10:18:35;25.60;99.90
14473;DHT22;7322;50.872;4.386;2023-07-28T10:21:05;25.60;99.90
14473;DHT22;7322;50.872;4.386;2023-07-28T10:23:35;25.60;99.90
14473;DHT22;7322;50.872;4.386;2023-07-28T10:26:04;25.60;99.90
14473;DHT22;7322;50.872;4.386;2023-07-28T10:28:34;25.60;99.90
14473;DHT22;7322;50.872;4.386;2023-07-28T10:31:05;25.70;99.90
14473;DHT22;7322;50.872;4.386;2023-07-28T10:33:34;25.70;99.90
14473;DHT22;7322;50.872;4.386;2023-07-28T10:36:15;25.70;99.90
14473;DHT22;7322;50.872;4.386;2023-07-28T10:38:44;25.70;99.90
14473;DHT22;7322;50.872;4.386;2023-07-28T10:41:13;25.70;99.90
14473;DHT22;7322;50.872;4.386;2023-07-28T10:43:41;25.70;99.90
14473;DHT22;7322;50.872;4.386;2023-07-28T10:46:09;25.70;99.90
14473;DHT22;7322;50.872;4.386;2023-07-28T10:48:42;25.70;99.90
14473;DHT22;7322;50.872;4.386;2023-07-28T10:51:10;25.70;99.90
14473;DHT22;7322;50.872;4.386;2023-07-28T10:53:38;25.70;99.90
14473;DHT22;7322;50.872;4.386;2023-07-28T10:56:07;25.70;99.90
14473;DHT22;7322;50.872;4.386;2023-07-28T10:58:37;25.70;99.90
14473;DHT22;7322;50.872;4.386;2023-07-28T11:01:06;25.70;99.90
14473;DHT22;7322;50.872;4.386;2023-07-28T11:03:33;25.70;99.90
14473;DHT22;7322;50.872;4.386;2023-07-28T11:06:00;25.70;99.90
14473;DHT22;7322;50.872;4.386;2023-07-28T11:08:30;25.70;99.90
14473;DHT22;7322;50.872;4.386;2023-07-28T11:10:57;25.70;99.90
14473;DHT22;7322;50.872;4.386;2023-07-28T11:13:41;25.80;99.90
14473;DHT22;7322;50.872;4.386;2023-07-28T11:16:08;25.80;99.90
14473;DHT22;7322;50.872;4.386;2023-07-28T11:18:38;25.80;99.90
14473;DHT22;7322;50.872;4.386;2023-07-28T11:21:17;25.70;99.90
14473;DHT22;7322;50.872;4.386;2023-07-28T11:23:45;25.80;99.90
14473;DHT22;7322;50.872;4.386;2023-07-28T11:26:13;25.70;99.90
14473;DHT22;7322;50.872;4.386;2023-07-28T11:28:51;25.70;99.90
14473;DHT22;7322;50.872;4.386;2023-07-28T11:31:23;25.70;99.90
14473;DHT22;7322;50.872;4.386;2023-07-28T11:33:55;25.70;99.90
14473;DHT22;7322;50.872;4.386;2023-07-28T11:36:37;25.70;99.90
14473;DHT22;7322;50.872;4.386;2023-07-28T11:39:35;25.70;99.90
14473;DHT22;7322;50.872;4.386;2023-07-28T11:42:05;25.80;99.90
14473;DHT22;7322;50.872;4.386;2023-07-28T11:44:41;25.70;99.90
14473;DHT22;7322;50.872;4.386;2023-07-28T11:47:17;25.80;99.90
14473;DHT22;7322;50.872;4.386;2023-07-28T11:49:47;25.80;99.90
14473;DHT22;7322;50.872;4.386;2023-07-28T11:52:20;25.80;99.90
14473;DHT22;7322;50.872;4.386;2023-07-28T11:55:06;25.80;99.90
14473;DHT22;7322;50.872;4.386;2023-07-28T11:57:40;25.80;99.90
14473;DHT22;7322;50.872;4.386;2023-07-28T12:00:34;25.70;99.90
14473;DHT22;7322;50.872;4.386;2023-07-28T12:03:06;25.80;99.90
14473;DHT22;7322;50.872;4.386;2023-07-28T12:05:35;25.80;99.90
14473;DHT22;7322;50.872;4.386;2023-07-28T12:08:04;25.80;99.90
14473;DHT22;7322;50.872;4.386;2023-07-28T12:10:54;25.80;99.90
14473;DHT22;7322;50.872;4.386;2023-07-28T12:13:32;25.80;99.90
14473;DHT22;7322;50.872;4.386;2023-07-28T12:16:01;25.90;99.90
14473;DHT22;7322;50.872;4.386;2023-07-28T12:18:33;25.80;99.90
14473;DHT22;7322;50.872;4.386;2023-07-28T12:21:13;25.80;99.90
14473;DHT22;7322;50.872;4.386;2023-07-28T12:23:55;25.90;99.90
14473;DHT22;7322;50.872;4.386;2023-07-28T12:26:26;25.90;99.90
14473;DHT22;7322;50.872;4.386;2023-07-28T12:29:12;25.90;99.90
14473;DHT22;7322;50.872;4.386;2023-07-28T12:31:42;25.90;99.90
14473;DHT22;7322;50.872;4.386;2023-07-28T12:34:25;25.90;99.90
14473;DHT22;7322;50.872;4.386;2023-07-28T12:40:11;25.90;99.90
14473;DHT22;7322;50.872;4.386;2023-07-28T12:42:42;25.90;99.90
14473;DHT22;7322;50.872;4.386;2023-07-28T12:45:10;25.90;99.90
14473;DHT22;7322;50.872;4.386;2023-07-28T12:47:41;25.90;99.90
14473;DHT22;7322;50.872;4.386;2023-07-28T12:50:14;25.90;99.90
14473;DHT22;7322;50.872;4.386;2023-07-28T12:52:44;25.90;99.90
14473;DHT22;7322;50.872;4.386;2023-07-28T12:55:26;26.00;99.90
14473;DHT22;7322;50.872;4.386;2023-07-28T12:57:53;26.00;99.90
14473;DHT22;7322;50.872;4.386;2023-07-28T13:00:20;26.00;99.90
14473;DHT22;7322;50.872;4.386;2023-07-28T13:02:49;26.00;99.90
14473;DHT22;7322;50.872;4.386;2023-07-28T13:05:16;26.00;99.90
14473;DHT22;7322;50.872;4.386;2023-07-28T13:07:43;26.00;99.90
14473;DHT22;7322;50.872;4.386;2023-07-28T13:10:10;26.00;99.90
14473;DHT22;7322;50.872;4.386;2023-07-28T13:12:38;26.00;99.90
14473;DHT22;7322;50.872;4.386;2023-07-28T13:15:06;26.10;99.90
14473;DHT22;7322;50.872;4.386;2023-07-28T13:17:33;26.10;99.90
14473;DHT22;7322;50.872;4.386;2023-07-28T13:20:02;26.10;99.90
14473;DHT22;7322;50.872;4.386;2023-07-28T13:22:29;26.00;99.90
14473;DHT22;7322;50.872;4.386;2023-07-28T13:24:56;26.00;99.90
14473;DHT22;7322;50.872;4.386;2023-07-28T13:27:23;26.00;99.90
14473;DHT22;7322;50.872;4.386;2023-07-28T13:29:50;26.00;99.90
14473;DHT22;7322;50.872;4.386;2023-07-28T13:32:18;26.00;99.90
14473;DHT22;7322;50.872;4.386;2023-07-28T13:34:49;26.00;99.90
14473;DHT22;7322;50.872;4.386;2023-07-28T13:37:17;26.00;99.90
14473;DHT22;7322;50.872;4.386;2023-07-28T13:39:45;26.00;99.90
14473;DHT22;7322;50.872;4.386;2023-07-28T13:42:12;26.00;99.90
14473;DHT22;7322;50.872;4.386;2023-07-28T13:44:41;26.00;99.90
14473;DHT22;7322;50.872;4.386;2023-07-28T13:47:08;26.00;99.90
14473;DHT22;7322;50.872;4.386;2023-07-28T13:49:35;26.00;99.90
14473;DHT22;7322;50.872;4.386;2023-07-28T13:52:03;26.00;99.90
14473;DHT22;7322;50.872;4.386;2023-07-28T13:54:32;26.00;99.90
14473;DHT22;7322;50.872;4.386;2023-07-28T13:56:59;26.00;99.90
14473;DHT22;7322;50.872;4.386;2023-07-28T13:59:26;26.00;99.90
14473;DHT22;7322;50.872;4.386;2023-07-28T14:01:53;26.00;99.90
14473;DHT22;7322;50.872;4.386;2023-07-28T14:04:21;26.00;99.90
14473;DHT22;7322;50.872;4.386;2023-07-28T14:06:48;25.90;99.90
14473;DHT22;7322;50.872;4.386;2023-07-28T14:09:22;25.90;99.90
14473;DHT22;7322;50.872;4.386;2023-07-28T14:11:55;26.00;99.90
14473;DHT22;7322;50.872;4.386;2023-07-28T14:14:28;25.90;99.90
14473;DHT22;7322;50.872;4.386;2023-07-28T14:19:49;25.90;99.90
14473;DHT22;7322;50.872;4.386;2023-07-28T14:22:23;25.90;99.90
14473;DHT22;7322;50.872;4.386;2023-07-28T14:24:56;26.00;99.90
14473;DHT22;7322;50.872;4.386;2023-07-28T14:27:26;26.00;99.90
14473;DHT22;7322;50.872;4.386;2023-07-28T14:29:54;26.00;99.90
14473;DHT22;7322;50.872;4.386;2023-07-28T14:32:22;26.00;99.90
14473;DHT22;7322;50.872;4.386;2023-07-28T14:34:49;26.10;99.90
14473;DHT22;7322;50.872;4.386;2023-07-28T14:37:17;26.10;99.90
14473;DHT22;7322;50.872;4.386;2023-07-28T14:39:45;26.10;99.90
14473;DHT22;7322;50.872;4.386;2023-07-28T14:42:16;26.10;99.90
14473;DHT22;7322;50.872;4.386;2023-07-28T14:44:45;26.10;99.90
14473;DHT22;7322;50.872;4.386;2023-07-28T14:47:15;26.10;99.90
14473;DHT22;7322;50.872;4.386;2023-07-28T14:49:43;26.10;99.90
14473;DHT22;7322;50.872;4.386;2023-07-28T14:52:12;26.10;99.90
14473;DHT22;7322;50.872;4.386;2023-07-28T14:54:41;26.10;99.90
14473;DHT22;7322;50.872;4.386;2023-07-28T14:57:09;26.10;99.90
14473;DHT22;7322;50.872;4.386;2023-07-28T14:59:48;26.10;99.90
14473;DHT22;7322;50.872;4.386;2023-07-28T15:02:20;26.10;99.90
14473;DHT22;7322;50.872;4.386;2023-07-28T15:04:53;26.10;99.90
14473;DHT22;7322;50.872;4.386;2023-07-28T15:07:25;26.20;99.90
14473;DHT22;7322;50.872;4.386;2023-07-28T15:09:58;26.10;99.90
14473;DHT22;7322;50.872;4.386;2023-07-28T15:12:27;26.10;99.90
14473;DHT22;7322;50.872;4.386;2023-07-28T15:15:00;26.10;99.90
14473;DHT22;7322;50.872;4.386;2023-07-28T15:17:33;26.10;99.90
14473;DHT22;7322;50.872;4.386;2023-07-28T15:20:01;26.20;99.90
14473;DHT22;7322;50.872;4.386;2023-07-28T15:22:30;26.10;99.90
14473;DHT22;7322;50.872;4.386;2023-07-28T15:25:27;26.20;99.90
14473;DHT22;7322;50.872;4.386;2023-07-28T15:27:54;26.20;99.90
14473;DHT22;7322;50.872;4.386;2023-07-28T15:30:28;26.10;99.90
14473;DHT22;7322;50.872;4.386;2023-07-28T15:33:14;26.20;99.90
14473;DHT22;7322;50.872;4.386;2023-07-28T15:36:01;26.20;99.90
14473;DHT22;7322;50.872;4.386;2023-07-28T15:38:28;26.20;99.90
14473;DHT22;7322;50.872;4.386;2023-07-28T15:41:05;26.20;99.90
14473;DHT22;7322;50.872;4.386;2023-07-28T15:43:34;26.20;99.90
14473;DHT22;7322;50.872;4.386;2023-07-28T15:48:58;26.30;99.90
14473;DHT22;7322;50.872;4.386;2023-07-28T15:51:28;26.20;99.90
14473;DHT22;7322;50.872;4.386;2023-07-28T15:54:06;26.30;99.90
14473;DHT22;7322;50.872;4.386;2023-07-28T15:56:45;26.30;99.90
14473;DHT22;7322;50.872;4.386;2023-07-28T15:59:44;26.30;99.90
14473;DHT22;7322;50.872;4.386;2023-07-28T16:02:33;26.30;99.90
14473;DHT22;7322;50.872;4.386;2023-07-28T16:05:08;26.30;99.90
14473;DHT22;7322;50.872;4.386;2023-07-28T16:07:46;26.30;99.90
14473;DHT22;7322;50.872;4.386;2023-07-28T16:13:52;26.30;99.90
14473;DHT22;7322;50.872;4.386;2023-07-28T16:16:19;26.30;99.90
14473;DHT22;7322;50.872;4.386;2023-07-28T16:18:58;26.20;99.90
14473;DHT22;7322;50.872;4.386;2023-07-28T16:21:42;26.30;99.90